»·PEaware :: DCM11 KYKM-KBOI

DCM11 :: KYKM-KBOI

FLIGHT INFORMATION

Flight Status: Arrived
Operator: DotCom
More flights by this operator :: More flights under this callsign
Pilot: Jose O. (25670)
Aircraft: AIRBUS A319
(A319)
More flights by this aircraft type
Origin: KYKM Yakima Air Term/Mcallister
United States
Destination: KBOI Boise Air Terminal/Gowen
United States
More flights between these airports :: More routes between these airports
Route: +GROMO4 SUNED HOSTS PARMO3
File this flight plan on PilotEdge
Remarks: Toliss A319, not expert with plane and learning, hoping controller will be nice and forgiving.
Altitude:
(Current/Filed)
33,000ft
Speed:
(Current/Filed)
400kts
Departed: 22-May-20 05:09 PM
Arrived: 22-May-20 05:59 PM
Distance/Time
Traveled:
256nm/0:50
Distance/Time
To Go:
Arrived

Flight Plot

Page will automatically refresh every two minutes.


Map Options




Map Legend


Flown Route
Filed Route
Departure Airport
Arrival Airport
Navaid (VOR, NDB)
Fix

Horizontal Profiles

Position Reports

Time Latitude Longitude Heading Altitude Ground
Speed
22-May-20 16:26 46.573353 -120.553947 185 1100ft 0kts
22-May-20 16:27 46.573353 -120.553947 185 1100ft 0kts
22-May-20 16:28 46.573353 -120.553947 185 1100ft 0kts
22-May-20 16:29 46.573353 -120.553947 185 1100ft 0kts
22-May-20 16:30 46.573353 -120.553947 185 1100ft 0kts
22-May-20 16:31 46.573353 -120.553947 185 1100ft 0kts
22-May-20 16:32 46.573353 -120.553947 185 1100ft 0kts
22-May-20 16:33 46.573353 -120.553947 185 1100ft 0kts
22-May-20 16:34 46.573353 -120.553947 185 1100ft 0kts
22-May-20 16:35 46.573353 -120.553947 185 1100ft 0kts
22-May-20 16:36 46.573353 -120.553947 185 1100ft 0kts
22-May-20 16:37 46.573353 -120.553947 185 1100ft 0kts
22-May-20 16:38 46.573353 -120.553947 185 1100ft 0kts
22-May-20 16:39 46.573353 -120.553947 185 1100ft 0kts
22-May-20 16:40 46.573353 -120.553947 185 1100ft 0kts
22-May-20 16:41 46.573353 -120.553947 185 1100ft 0kts
22-May-20 16:42 46.573353 -120.553947 185 1100ft 0kts
22-May-20 16:43 46.573353 -120.553947 185 1100ft 0kts
22-May-20 16:44 46.573353 -120.553947 185 1100ft 0kts
22-May-20 16:45 46.573353 -120.553947 185 1100ft 0kts
22-May-20 16:46 46.573353 -120.553947 185 1100ft 0kts
22-May-20 16:47 46.573353 -120.553947 185 1100ft 0kts
22-May-20 16:48 46.573353 -120.553947 185 1100ft 0kts
22-May-20 16:49 46.573353 -120.553947 185 1100ft 0kts
22-May-20 16:50 46.573353 -120.553947 185 1100ft 0kts
22-May-20 16:51 46.573353 -120.553947 185 1100ft 0kts
22-May-20 16:52 46.573353 -120.553947 185 1100ft 0kts
22-May-20 16:53 46.573353 -120.553947 185 1100ft 0kts
22-May-20 16:54 46.573353 -120.553947 185 1100ft 0kts
22-May-20 16:55 46.573353 -120.553947 185 1100ft 0kts
22-May-20 16:56 46.573353 -120.553947 185 1100ft 0kts
22-May-20 16:57 46.573353 -120.553947 185 1100ft 0kts
22-May-20 16:58 46.573353 -120.553947 185 1100ft 0kts
22-May-20 16:59 46.572349 -120.553678 139 1098ft 14kts
22-May-20 17:00 46.570295 -120.545835 109 1083ft 23kts
22-May-20 17:01 46.568152 -120.537307 109 1067ft 20kts
22-May-20 17:02 46.566935 -120.532416 110 1058ft 0kts
22-May-20 17:03 46.566935 -120.532416 110 1058ft 0kts
22-May-20 17:04 46.566633 -120.531667 146 1057ft 0kts
22-May-20 17:05 46.566633 -120.531667 146 1057ft 0kts
22-May-20 17:06 46.566633 -120.531667 146 1057ft 0kts
22-May-20 17:07 46.566386 -120.531516 164 1057ft 7kts
22-May-20 17:08 46.571933 -120.557163 287 1496ft 160kts
22-May-20 17:09 46.572237 -120.627565 264 4787ft 204kts
22-May-20 17:10 46.521409 -120.652597 159 7319ft 254kts
22-May-20 17:11 46.458517 -120.591914 131 9826ft 288kts
22-May-20 17:12 46.422572 -120.488146 100 11952ft 296kts
22-May-20 17:13 46.426960 -120.369465 86 14597ft 315kts
22-May-20 17:14 46.388520 -120.249465 116 16214ft 359kts
22-May-20 17:15 46.344434 -120.115568 115 18436ft 380kts
22-May-20 17:16 46.297480 -119.976254 124 20634ft 394kts
22-May-20 17:17 46.214417 -119.871376 142 22731ft 403kts
22-May-20 17:18 46.125280 -119.773306 142 24930ft 403kts
22-May-20 17:19 46.035744 -119.674971 142 26763ft 407kts
22-May-20 17:20 45.945486 -119.576221 142 28401ft 411kts
22-May-20 17:21 45.855600 -119.478550 142 29705ft 420kts
22-May-20 17:23 45.761612 -119.376879 142 30920ft 428kts
22-May-20 17:24 45.667500 -119.274907 143 32000ft 435kts
22-May-20 17:25 45.570285 -119.170159 143 32967ft 443kts
22-May-20 17:26 45.471978 -119.064874 143 32981ft 442kts
22-May-20 17:27 45.373544 -118.959954 143 32981ft 442kts
22-May-20 17:28 45.275225 -118.855605 143 32981ft 442kts
22-May-20 17:29 45.176843 -118.751629 143 32981ft 442kts
22-May-20 17:30 45.078045 -118.647741 143 32981ft 442kts
22-May-20 17:31 44.979685 -118.544738 143 32981ft 442kts
22-May-20 17:32 44.882690 -118.443627 143 32975ft 442kts
22-May-20 17:33 44.784954 -118.342644 143 32980ft 442kts
22-May-20 17:34 44.685570 -118.239541 143 32981ft 442kts
22-May-20 17:35 44.586678 -118.137677 143 32597ft 440kts
22-May-20 17:36 44.488644 -118.037181 143 31397ft 433kts
22-May-20 17:37 44.392536 -117.939114 143 29668ft 419kts
22-May-20 17:38 44.299649 -117.844679 143 27969ft 407kts
22-May-20 17:39 44.209639 -117.753551 143 26298ft 396kts
22-May-20 17:39 44.136303 -117.679574 143 24919ft 387kts
22-May-20 17:40 44.050026 -117.592817 143 23277ft 377kts
22-May-20 17:42 43.968368 -117.473959 113 21427ft 365kts
22-May-20 17:42 43.934722 -117.366656 113 20126ft 352kts
22-May-20 17:43 43.896285 -117.245602 114 17114ft 344kts
22-May-20 17:45 43.851995 -117.108071 114 13377ft 325kts
22-May-20 17:45 43.821987 -117.014832 114 11590ft 311kts
22-May-20 17:46 43.787534 -116.908602 114 10589ft 296kts
22-May-20 17:47 43.751771 -116.808617 124 9583ft 285kts
22-May-20 17:48 43.703105 -116.723981 128 8583ft 278kts
22-May-20 17:49 43.655173 -116.641529 128 7583ft 272kts
22-May-20 17:50 43.607715 -116.560101 128 6977ft 275kts
22-May-20 17:51 43.561677 -116.475905 118 6974ft 275kts
22-May-20 17:52 43.529844 -116.379786 113 6974ft 275kts
22-May-20 17:53 43.499523 -116.286071 114 6382ft 253kts
22-May-20 17:54 43.473892 -116.206101 107 5787ft 202kts
22-May-20 17:55 43.501898 -116.149283 35 4560ft 176kts
22-May-20 17:56 43.540855 -116.162913 317 3499ft 140kts
22-May-20 17:57 43.560383 -116.208258 295 2865ft 121kts
22-May-20 17:58 43.565888 -116.220648 295 2853ft 20kts
22-May-20 17:59 43.568728 -116.226048 9 2846ft 14kts
22-May-20 18:00 43.570400 -116.228638 275 2842ft 0kts
22-May-20 18:01 43.570400 -116.228638 275 2842ft 0kts
22-May-20 18:02 43.570400 -116.228638 275 2842ft 0kts
22-May-20 18:03 43.570400 -116.228638 275 2842ft 0kts
22-May-20 18:04 43.570400 -116.228638 275 2842ft 0kts
22-May-20 18:05 43.570400 -116.228638 275 2842ft 0kts
22-May-20 18:06 43.570400 -116.228638 275 2842ft 0kts
22-May-20 18:07 43.570400 -116.228638 275 2842ft 0kts
22-May-20 18:08 43.570400 -116.228638 275 2842ft 0kts
22-May-20 18:09 43.570400 -116.228638 275 2842ft 0kts
22-May-20 18:10 43.570400 -116.228638 275 2842ft 0kts

Navigation Log

Ident Type
Flight plan parsing failed, navigation log unavailable